createdAt,value
2022-10-05T00:01:18.620Z,100.00
2022-10-05T00:03:47.239Z,100.00
2022-10-05T00:06:15.804Z,100.00
2022-10-05T00:08:44.597Z,100.00
2022-10-05T00:11:14.610Z,100.00
2022-10-05T00:13:43.348Z,99.76
2022-10-05T00:16:17.731Z,99.75
2022-10-05T00:18:48.635Z,99.16
2022-10-05T00:21:20.868Z,98.89
2022-10-05T00:23:49.845Z,98.65
2022-10-05T00:26:21.185Z,98.88
2022-10-05T00:28:50.151Z,99.42
2022-10-05T00:31:22.578Z,98.70
2022-10-05T00:33:51.776Z,98.81
2022-10-05T00:36:20.369Z,98.59
2022-10-05T00:38:48.984Z,98.78
2022-10-05T00:41:21.616Z,99.38
2022-10-05T00:44:10.756Z,100.00
2022-10-05T00:46:48.424Z,99.50
2022-10-05T00:49:23.480Z,99.62
2022-10-05T00:51:57.190Z,98.50
2022-10-05T00:54:30.843Z,98.98
2022-10-05T00:57:22.167Z,98.49
2022-10-05T00:59:59.791Z,98.54
2022-10-05T01:02:37.183Z,98.65
2022-10-05T01:05:10.452Z,98.41
2022-10-05T01:07:43.613Z,98.35
2022-10-05T01:10:20.141Z,97.63
2022-10-05T01:12:55.318Z,98.11
2022-10-05T01:15:28.770Z,98.46
2022-10-05T01:18:04.493Z,98.50
2022-10-05T01:20:40.271Z,98.04
2022-10-05T01:23:32.245Z,97.69
2022-10-05T01:26:12.939Z,97.87
2022-10-05T01:28:46.193Z,98.68
2022-10-05T01:31:20.905Z,98.68
2022-10-05T01:33:56.308Z,98.66
2022-10-05T01:36:29.024Z,99.17
2022-10-05T01:39:06.428Z,99.11
2022-10-05T01:41:39.396Z,97.85
2022-10-05T01:44:11.834Z,98.71
2022-10-05T01:46:43.226Z,98.86
2022-10-05T01:49:28.573Z,98.07
2022-10-05T01:52:09.305Z,97.81
2022-10-05T01:54:43.350Z,97.71
2022-10-05T01:57:19.058Z,97.69
2022-10-05T02:00:00.444Z,98.95
2022-10-05T02:02:30.608Z,98.44
2022-10-05T02:05:05.320Z,97.38
2022-10-05T02:07:37.968Z,98.58
2022-10-05T02:10:10.042Z,98.40
2022-10-05T02:12:39.204Z,98.49
2022-10-05T02:15:15.164Z,98.57
2022-10-05T02:17:46.394Z,98.27
2022-10-05T02:20:19.940Z,99.03
2022-10-05T02:22:50.933Z,98.11
2022-10-05T02:25:22.677Z,98.69
2022-10-05T02:27:55.106Z,98.49
2022-10-05T02:30:25.347Z,98.63
2022-10-05T02:32:55.884Z,98.22
2022-10-05T02:35:24.859Z,97.85
2022-10-05T02:38:01.222Z,97.89
2022-10-05T02:40:40.537Z,98.12
2022-10-05T02:43:17.997Z,97.44
2022-10-05T02:45:54.138Z,97.25
2022-10-05T02:48:32.037Z,97.67
2022-10-05T02:51:04.833Z,97.35
2022-10-05T02:53:39.083Z,97.09
2022-10-05T02:56:14.177Z,97.88
2022-10-05T02:58:47.196Z,98.15
2022-10-05T03:01:24.650Z,98.69
2022-10-05T03:04:03.159Z,98.24
2022-10-05T03:06:34.124Z,97.98
2022-10-05T03:09:04.211Z,97.85
2022-10-05T03:11:36.632Z,98.43
2022-10-05T03:14:09.666Z,96.73
2022-10-05T03:16:48.068Z,97.56
2022-10-05T03:19:54.174Z,98.63
2022-10-05T03:22:32.242Z,98.84
2022-10-05T03:25:22.660Z,99.00
2022-10-05T03:27:54.591Z,98.53
2022-10-05T03:30:26.527Z,98.35
2022-10-05T03:33:02.620Z,98.58
2022-10-05T03:35:33.816Z,98.23
2022-10-05T03:38:09.638Z,97.92
2022-10-05T03:40:41.210Z,98.33
2022-10-05T03:43:37.767Z,98.45
2022-10-05T03:46:10.198Z,97.74
2022-10-05T03:48:45.364Z,97.29
2022-10-05T03:51:16.533Z,97.27
2022-10-05T03:53:48.797Z,97.24
2022-10-05T03:56:20.762Z,97.32
2022-10-05T03:58:55.689Z,97.12
2022-10-05T04:01:26.996Z,96.74
2022-10-05T04:03:59.284Z,97.08
2022-10-05T04:06:29.224Z,97.18
2022-10-05T04:09:00.545Z,96.42
2022-10-05T04:11:31.568Z,97.07
2022-10-05T04:14:02.631Z,96.46
2022-10-05T04:16:34.802Z,96.36
2022-10-05T04:19:11.821Z,96.73
2022-10-05T04:21:47.251Z,97.09
2022-10-05T04:24:19.619Z,95.87
2022-10-05T04:26:52.311Z,97.50
2022-10-05T04:29:28.784Z,96.80
2022-10-05T04:32:08.228Z,96.77
2022-10-05T04:34:54.556Z,97.35
2022-10-05T04:37:26.955Z,96.67
2022-10-05T04:40:09.195Z,97.65
2022-10-05T04:42:41.314Z,97.52
2022-10-05T04:45:15.748Z,97.72
2022-10-05T04:48:03.473Z,96.73
2022-10-05T04:50:45.393Z,97.84
2022-10-05T04:53:21.285Z,98.06
2022-10-05T04:55:55.013Z,98.18
2022-10-05T04:58:42.097Z,98.59
2022-10-05T05:01:22.922Z,98.68
2022-10-05T05:04:06.245Z,98.44
2022-10-05T05:06:41.379Z,98.38
2022-10-05T05:09:37.305Z,97.96
2022-10-05T05:12:19.110Z,97.48
2022-10-05T05:15:11.908Z,98.24
2022-10-05T05:17:52.061Z,98.84
2022-10-05T05:20:24.142Z,97.48
2022-10-05T05:23:04.711Z,97.60
2022-10-05T05:25:39.160Z,98.25
2022-10-05T05:28:17.909Z,98.68
2022-10-05T05:30:51.572Z,98.90
2022-10-05T05:33:23.953Z,98.53
2022-10-05T05:36:13.713Z,97.58
2022-10-05T05:38:48.082Z,97.67
2022-10-05T05:41:22.537Z,97.49
2022-10-05T05:43:56.714Z,97.37
2022-10-05T05:47:01.912Z,96.66
2022-10-05T05:49:19.688Z,96.12
2022-10-05T05:51:51.605Z,96.18
2022-10-05T05:54:27.694Z,95.27
2022-10-05T05:57:01.155Z,95.82
2022-10-05T05:59:33.708Z,96.17
2022-10-05T06:02:07.169Z,95.73
2022-10-05T06:04:39.203Z,96.15
2022-10-05T06:07:08.294Z,96.05
2022-10-05T06:09:41.006Z,95.87
2022-10-05T06:12:12.765Z,95.88
2022-10-05T06:14:44.488Z,96.17
2022-10-05T06:17:15.987Z,96.74
2022-10-05T06:19:45.684Z,96.66
2022-10-05T06:22:19.106Z,96.70
2022-10-05T06:24:57.088Z,97.23
2022-10-05T06:27:36.614Z,96.87
2022-10-05T06:30:10.655Z,97.34
2022-10-05T06:32:53.595Z,98.15
2022-10-05T06:35:31.431Z,97.49
2022-10-05T06:38:19.960Z,97.64
2022-10-05T06:40:58.593Z,97.17
2022-10-05T06:43:36.142Z,96.62
2022-10-05T06:46:10.426Z,96.36
2022-10-05T06:49:07.405Z,96.65
2022-10-05T06:51:39.103Z,96.29
2022-10-05T06:54:18.933Z,96.75
2022-10-05T06:56:53.512Z,96.30
2022-10-05T06:59:25.233Z,96.84
2022-10-05T07:01:58.320Z,96.15
2022-10-05T07:04:43.906Z,96.24
2022-10-05T07:07:18.407Z,96.31
2022-10-05T07:09:59.999Z,96.68
2022-10-05T07:12:41.312Z,96.17
2022-10-05T07:15:33.523Z,96.39
2022-10-05T07:18:13.451Z,96.25
2022-10-05T07:20:49.251Z,96.17
2022-10-05T07:23:26.506Z,96.31
2022-10-05T07:26:03.276Z,95.58
2022-10-05T07:28:38.622Z,95.22
2022-10-05T07:31:10.777Z,95.23
2022-10-05T07:33:44.316Z,94.76
2022-10-05T07:36:35.469Z,94.51
2022-10-05T07:39:07.252Z,93.89
2022-10-05T07:41:41.146Z,92.81
2022-10-05T07:44:14.482Z,93.02
2022-10-05T07:46:51.806Z,92.28
2022-10-05T07:49:27.859Z,92.71
2022-10-05T07:51:58.283Z,92.54
2022-10-05T07:54:30.315Z,92.47
2022-10-05T07:57:05.127Z,92.11
2022-10-05T07:59:42.016Z,92.76
2022-10-05T08:02:24.799Z,93.02
2022-10-05T08:04:58.369Z,91.61
2022-10-05T08:07:29.427Z,91.70
2022-10-05T08:10:03.603Z,91.61
2022-10-05T08:12:35.859Z,90.82
2022-10-05T08:15:10.897Z,90.60
2022-10-05T08:17:45.356Z,90.64
2022-10-05T08:20:24.388Z,90.96
2022-10-05T08:22:56.297Z,89.87
2022-10-05T08:25:27.317Z,88.73
2022-10-05T08:28:00.080Z,89.51
2022-10-05T08:30:31.793Z,90.16
2022-10-05T08:33:06.846Z,89.25
2022-10-05T08:35:39.400Z,89.07
2022-10-05T08:38:12.658Z,88.34
2022-10-05T08:41:00.599Z,89.16
2022-10-05T08:44:04.713Z,88.90
2022-10-05T08:47:00.491Z,87.76
2022-10-05T08:50:11.064Z,87.69
2022-10-05T08:52:53.477Z,88.18
2022-10-05T08:55:35.911Z,88.26
2022-10-05T08:58:23.070Z,88.63
2022-10-05T09:00:57.135Z,89.00
2022-10-05T09:04:07.388Z,90.01
2022-10-05T09:07:07.341Z,89.04
2022-10-05T09:10:04.647Z,87.42
2022-10-05T09:13:01.398Z,87.14
2022-10-05T09:15:43.493Z,86.51
2022-10-05T09:18:47.937Z,86.69
2022-10-05T09:21:29.656Z,87.16
2022-10-05T09:24:09.377Z,87.29
2022-10-05T09:26:45.443Z,86.07
2022-10-05T09:29:51.345Z,84.59
2022-10-05T09:32:41.736Z,84.48
2022-10-05T09:35:23.032Z,84.33
2022-10-05T09:38:23.283Z,82.83
2022-10-05T09:41:24.723Z,82.42
2022-10-05T09:44:16.169Z,84.28
2022-10-05T09:47:01.028Z,84.72
2022-10-05T09:49:57.821Z,83.45
2022-10-05T09:52:50.256Z,83.33
2022-10-05T09:55:43.921Z,81.56
2022-10-05T09:58:34.037Z,83.09
2022-10-05T10:01:29.296Z,82.38
2022-10-05T10:04:19.026Z,80.46
2022-10-05T10:07:05.002Z,80.14
2022-10-05T10:09:39.940Z,78.92
2022-10-05T10:12:33.422Z,78.90
2022-10-05T10:15:19.146Z,78.89
2022-10-05T10:18:01.895Z,78.21
2022-10-05T10:20:38.508Z,76.69
2022-10-05T10:23:14.702Z,77.34
2022-10-05T10:26:05.099Z,76.78
2022-10-05T10:29:07.271Z,75.88
2022-10-05T10:31:47.707Z,74.71
2022-10-05T10:34:37.995Z,74.74
2022-10-05T10:37:24.937Z,73.36
2022-10-05T10:40:10.248Z,72.62
2022-10-05T10:42:43.172Z,71.42
2022-10-05T10:45:20.564Z,71.68
2022-10-05T10:47:59.773Z,70.85
2022-10-05T10:50:58.227Z,71.20
2022-10-05T10:53:47.642Z,70.45
2022-10-05T10:56:41.316Z,69.94
2022-10-05T11:00:15.443Z,69.80
2022-10-05T11:03:09.023Z,72.62
2022-10-05T11:05:52.909Z,72.19
2022-10-05T11:08:49.788Z,68.90
2022-10-05T11:11:28.177Z,65.13
2022-10-05T11:14:22.249Z,64.74
2022-10-05T11:17:14.037Z,63.87
2022-10-05T11:20:04.693Z,63.61
2022-10-05T11:22:42.416Z,63.65
2022-10-05T11:25:48.052Z,63.69
2022-10-05T11:28:39.859Z,63.08
2022-10-05T11:31:46.934Z,61.85
2022-10-05T11:34:39.348Z,61.48
2022-10-05T11:37:21.244Z,61.87
2022-10-05T11:40:16.692Z,63.50
2022-10-05T11:43:06.241Z,62.82
2022-10-05T11:45:46.059Z,65.10
2022-10-05T11:48:29.079Z,63.89
2022-10-05T11:51:21.332Z,63.51
2022-10-05T11:53:59.412Z,61.87
2022-10-05T11:59:11.990Z,60.87
2022-10-05T12:01:44.894Z,60.99
2022-10-05T12:04:19.875Z,62.25
2022-10-05T12:06:57.706Z,62.56
2022-10-05T12:09:39.761Z,62.68
2022-10-05T12:12:15.635Z,59.68
2022-10-05T12:14:52.420Z,61.31
2022-10-05T12:17:26.042Z,60.59
2022-10-05T12:19:59.190Z,61.32
2022-10-05T12:22:32.757Z,60.83
2022-10-05T12:25:07.810Z,61.07
2022-10-05T12:27:39.452Z,62.43
2022-10-05T12:30:15.588Z,57.86
2022-10-05T12:32:55.892Z,61.79
2022-10-05T12:35:47.301Z,60.99
2022-10-05T12:38:21.613Z,58.93
2022-10-05T12:40:58.360Z,59.24
2022-10-05T12:43:34.888Z,59.42
2022-10-05T12:46:10.604Z,60.03
2022-10-05T12:49:09.663Z,58.63
2022-10-05T12:51:42.273Z,54.88
2022-10-05T12:54:18.374Z,57.62
2022-10-05T12:56:53.828Z,57.44
2022-10-05T12:59:33.815Z,56.56
2022-10-05T13:02:08.686Z,55.65
2022-10-05T13:04:43.191Z,54.95
2022-10-05T13:07:23.611Z,54.38
2022-10-05T13:09:59.077Z,53.49
2022-10-05T13:12:36.205Z,54.78
2022-10-05T13:15:11.882Z,53.96
2022-10-05T13:17:45.399Z,53.88
2022-10-05T13:20:22.589Z,55.18
2022-10-05T13:22:55.567Z,56.25
2022-10-05T13:25:28.474Z,49.61
2022-10-05T13:28:11.867Z,45.18
2022-10-05T13:30:42.529Z,42.12
2022-10-05T13:33:17.956Z,41.57
2022-10-05T13:35:52.152Z,38.42
2022-10-05T13:38:26.865Z,38.53
2022-10-05T13:41:04.057Z,39.80
2022-10-05T13:43:39.933Z,39.06
2022-10-05T13:46:13.430Z,38.70
2022-10-05T13:48:51.656Z,38.02
2022-10-05T13:51:23.162Z,37.58
2022-10-05T13:53:57.495Z,38.69
2022-10-05T13:56:30.398Z,38.47
2022-10-05T13:59:11.865Z,38.99
2022-10-05T14:01:43.025Z,39.60
2022-10-05T14:04:18.052Z,39.93
2022-10-05T14:06:47.067Z,40.14
2022-10-05T14:09:29.711Z,40.14
2022-10-05T14:12:14.173Z,41.60
2022-10-05T14:14:50.604Z,40.75
2022-10-05T14:17:37.393Z,39.07
2022-10-05T14:20:19.691Z,41.41
2022-10-05T14:22:52.759Z,40.79
2022-10-05T14:25:21.803Z,41.04
2022-10-05T14:28:00.417Z,41.02
2022-10-05T14:30:31.496Z,39.85
2022-10-05T14:33:15.915Z,41.67
2022-10-05T14:35:50.101Z,41.23
2022-10-05T14:38:20.973Z,42.16
2022-10-05T14:41:05.375Z,42.59
2022-10-05T14:43:34.200Z,43.99
2022-10-05T14:46:25.322Z,43.45
2022-10-05T14:49:13.811Z,41.49
2022-10-05T14:51:43.124Z,42.33
2022-10-05T14:54:25.144Z,42.49
2022-10-05T14:57:02.392Z,42.26
2022-10-05T14:59:59.951Z,41.72
2022-10-05T15:02:53.315Z,42.59
2022-10-05T15:05:26.777Z,42.37
2022-10-05T15:07:59.517Z,42.35
2022-10-05T15:10:30.691Z,42.19
2022-10-05T15:13:09.202Z,42.68
2022-10-05T15:15:45.556Z,41.29
2022-10-05T15:18:27.249Z,40.63
2022-10-05T15:21:10.794Z,41.20
2022-10-05T15:23:42.822Z,41.00
2022-10-05T15:26:23.632Z,40.66
2022-10-05T15:28:56.269Z,40.21
2022-10-05T15:31:31.105Z,40.76
2022-10-05T15:34:02.974Z,39.90
2022-10-05T15:36:36.424Z,41.96
2022-10-05T15:39:10.546Z,42.66
2022-10-05T15:41:55.247Z,40.61
2022-10-05T15:44:34.159Z,40.62
2022-10-05T15:47:06.110Z,41.95
2022-10-05T15:49:40.722Z,41.87
2022-10-05T15:52:17.725Z,42.19
2022-10-05T15:55:10.403Z,42.58
2022-10-05T15:57:44.125Z,43.16
2022-10-05T16:00:13.942Z,42.73
2022-10-05T16:02:46.616Z,43.48
2022-10-05T16:05:43.630Z,43.84
2022-10-05T16:08:37.889Z,44.27
2022-10-05T16:11:10.050Z,44.35
2022-10-05T16:13:43.533Z,44.75
2022-10-05T16:16:18.301Z,49.09
2022-10-05T16:19:00.512Z,46.75
2022-10-05T16:21:38.902Z,46.89
2022-10-05T16:24:18.791Z,47.29
2022-10-05T16:26:58.949Z,46.60
2022-10-05T16:29:39.113Z,46.80
2022-10-05T16:32:11.444Z,46.77
2022-10-05T16:34:57.116Z,48.41
2022-10-05T16:37:34.705Z,47.98
2022-10-05T16:40:06.764Z,47.65
2022-10-05T16:42:49.632Z,48.46
2022-10-05T16:45:27.985Z,50.36
2022-10-05T16:48:04.747Z,51.80
2022-10-05T16:50:38.825Z,52.36
2022-10-05T16:53:16.077Z,54.79
2022-10-05T16:55:48.260Z,53.57
2022-10-05T16:58:21.544Z,54.49
2022-10-05T17:01:00.928Z,54.39
2022-10-05T17:03:39.907Z,54.23
2022-10-05T17:06:38.017Z,56.69
2022-10-05T17:09:19.424Z,59.33
2022-10-05T17:11:59.943Z,58.37
2022-10-05T17:14:37.386Z,59.42
2022-10-05T17:17:36.694Z,59.82
2022-10-05T17:20:42.938Z,61.66
2022-10-05T17:23:28.060Z,63.10
2022-10-05T17:26:05.591Z,61.27
2022-10-05T17:28:39.771Z,62.24
2022-10-05T17:31:14.982Z,62.78
2022-10-05T17:34:11.718Z,63.08
2022-10-05T17:36:44.779Z,64.02
2022-10-05T17:39:16.431Z,63.77
2022-10-05T17:41:46.823Z,63.84
2022-10-05T17:44:26.182Z,64.05
2022-10-05T17:46:57.435Z,64.65
2022-10-05T17:49:47.307Z,64.82
2022-10-05T17:52:41.498Z,65.20
2022-10-05T17:55:29.938Z,64.62
2022-10-05T17:58:02.034Z,64.50
2022-10-05T18:00:50.180Z,64.61
2022-10-05T18:03:40.852Z,64.79
2022-10-05T18:06:42.061Z,65.28
2022-10-05T18:09:33.006Z,65.73
2022-10-05T18:12:26.366Z,66.80
2022-10-05T18:14:59.896Z,66.55
2022-10-05T18:17:46.381Z,66.90
2022-10-05T18:20:30.161Z,67.59
2022-10-05T18:23:29.368Z,67.96
2022-10-05T18:26:02.220Z,68.64
2022-10-05T18:28:41.065Z,68.75
2022-10-05T18:31:21.160Z,69.12
2022-10-05T18:34:03.415Z,69.62
2022-10-05T18:36:42.885Z,68.32
2022-10-05T18:39:22.641Z,67.92
2022-10-05T18:42:00.208Z,67.95
2022-10-05T18:44:37.487Z,69.39
2022-10-05T18:47:14.701Z,69.88
2022-10-05T18:49:57.174Z,70.46
2022-10-05T18:52:35.684Z,70.14
2022-10-05T18:55:11.840Z,70.81
2022-10-05T18:57:50.602Z,71.21
2022-10-05T19:00:21.737Z,72.57
2022-10-05T19:02:54.511Z,72.77
2022-10-05T19:05:47.668Z,73.22
2022-10-05T19:08:24.850Z,74.30
2022-10-05T19:10:56.852Z,73.63
2022-10-05T19:13:34.251Z,74.18
2022-10-05T19:16:17.790Z,73.30
2022-10-05T19:19:12.230Z,73.95
2022-10-05T19:21:45.703Z,73.45
2022-10-05T19:24:48.089Z,73.71
2022-10-05T19:27:22.995Z,73.98
2022-10-05T19:30:08.653Z,73.77
2022-10-05T19:32:45.228Z,73.48
2022-10-05T19:35:23.380Z,73.97
2022-10-05T19:38:03.095Z,74.29
2022-10-05T19:40:36.501Z,74.65
2022-10-05T19:43:18.929Z,75.80
2022-10-05T19:45:58.582Z,76.29
2022-10-05T19:48:32.934Z,76.35
2022-10-05T19:51:03.203Z,77.03
2022-10-05T19:53:36.374Z,77.44
2022-10-05T19:56:20.008Z,77.45
2022-10-05T19:58:49.583Z,77.44
2022-10-05T20:01:26.542Z,77.52
2022-10-05T20:03:57.938Z,77.51
2022-10-05T20:06:29.431Z,77.85
2022-10-05T20:09:00.264Z,77.82
2022-10-05T20:11:29.631Z,78.48
2022-10-05T20:14:17.892Z,78.85
2022-10-05T20:17:04.011Z,78.70
2022-10-05T20:19:57.486Z,79.32
2022-10-05T20:22:35.452Z,79.61
2022-10-05T20:25:06.639Z,80.12
2022-10-05T20:27:37.696Z,80.72
2022-10-05T20:30:07.797Z,80.94
2022-10-05T20:32:36.528Z,81.38
2022-10-05T20:35:06.719Z,81.50
2022-10-05T20:37:37.813Z,81.55
2022-10-05T20:40:07.315Z,81.77
2022-10-05T20:42:36.044Z,82.32
2022-10-05T20:45:06.341Z,82.65
2022-10-05T20:47:37.550Z,82.99
2022-10-05T20:50:09.030Z,83.29
2022-10-05T20:52:39.175Z,83.68
2022-10-05T20:55:11.737Z,84.03
2022-10-05T20:57:41.579Z,84.00
2022-10-05T21:00:11.610Z,84.58
2022-10-05T21:02:40.412Z,84.67
2022-10-05T21:05:10.078Z,85.02
2022-10-05T21:07:40.852Z,84.69
2022-10-05T21:10:11.166Z,84.83
2022-10-05T21:12:39.820Z,85.37
2022-10-05T21:15:10.455Z,85.22
2022-10-05T21:17:41.706Z,85.27
2022-10-05T21:20:11.155Z,86.00
2022-10-05T21:22:41.851Z,85.87
2022-10-05T21:25:10.798Z,85.96
2022-10-05T21:27:39.797Z,86.49
2022-10-05T21:30:10.137Z,86.72
2022-10-05T21:32:43.982Z,86.98
2022-10-05T21:35:13.284Z,87.51
2022-10-05T21:37:43.393Z,87.32
2022-10-05T21:40:12.102Z,88.06
2022-10-05T21:42:40.792Z,88.31
2022-10-05T21:45:10.890Z,88.60
2022-10-05T21:47:39.625Z,88.77
2022-10-05T21:50:10.301Z,88.57
2022-10-05T21:52:38.941Z,89.10
2022-10-05T21:55:09.759Z,89.06
2022-10-05T21:57:39.008Z,88.62
2022-10-05T22:00:09.409Z,89.17
2022-10-05T22:02:38.102Z,90.04
2022-10-05T22:05:07.106Z,89.97
2022-10-05T22:07:36.046Z,90.10
2022-10-05T22:10:05.696Z,90.18
2022-10-05T22:12:35.652Z,89.31
2022-10-05T22:15:06.271Z,89.00
2022-10-05T22:17:36.104Z,90.26
2022-10-05T22:20:05.166Z,90.45
2022-10-05T22:22:34.198Z,89.49
2022-10-05T22:25:03.144Z,89.75
2022-10-05T22:27:32.114Z,90.25
2022-10-05T22:30:03.679Z,90.72
2022-10-05T22:32:32.377Z,89.79
2022-10-05T22:35:01.029Z,91.18
2022-10-05T22:37:29.679Z,91.69
2022-10-05T22:39:58.526Z,91.05
2022-10-05T22:42:27.177Z,90.82
2022-10-05T22:44:55.830Z,91.47
2022-10-05T22:47:25.896Z,92.10
2022-10-05T22:49:55.106Z,92.42
2022-10-05T22:52:23.773Z,91.86
2022-10-05T22:54:52.437Z,92.00
2022-10-05T22:57:21.338Z,92.01
2022-10-05T22:59:50.007Z,92.62
2022-10-05T23:02:19.858Z,92.46
2022-10-05T23:04:49.881Z,91.90
2022-10-05T23:07:18.509Z,92.53
2022-10-05T23:09:47.195Z,92.60
2022-10-05T23:12:15.975Z,92.86
2022-10-05T23:14:44.687Z,92.86
2022-10-05T23:17:13.306Z,92.82
2022-10-05T23:19:41.910Z,92.96
2022-10-05T23:22:11.923Z,93.02
2022-10-05T23:24:40.552Z,93.52
2022-10-05T23:27:09.192Z,93.55
2022-10-05T23:29:37.922Z,94.02
2022-10-05T23:32:07.899Z,93.28
2022-10-05T23:34:36.559Z,93.66
2022-10-05T23:37:05.637Z,93.91
2022-10-05T23:39:35.649Z,93.77
2022-10-05T23:42:05.051Z,93.42
2022-10-05T23:44:33.681Z,93.71
2022-10-05T23:47:02.345Z,93.58
2022-10-05T23:49:31.005Z,94.17
2022-10-05T23:51:59.666Z,93.87
2022-10-05T23:54:28.266Z,93.77
2022-10-05T23:56:58.237Z,94.16
2022-10-05T23:59:26.835Z,94.17
